Latest Weather Observations for Curtin

IDW60801

Issued at 4:35 pm WST Friday 31 October 2014 (issued every 30 minutes, with the page automatically refreshed every 10 minutes)

About weather observations | Map of weather stations | Latest weather observations for WA | Other Formats
Station Details ID: 003080 Name: CURTIN AERO Lat: -17.58 Lon: 123.83 Height: 77.5 m
Data from the previous 72 hours. | See also: Recent months at Curtin
Date/Time
WST
Temp
°C
App
Temp
°C
Dew
Point
Rel
Hum
%
Delta-T
°C
Wind Press
QNH
hPa
Press
MSL
hPa
Rain
since 9 am
mm
Dir
 
Spd
km/h
Gust
km/h
Spd
kts
Gust
kts
31/04:30pm 34.6 35.3 22.3 48 8.5 N 22 33 12 18 1004.3 1003.7 0.0
31/04:00pm 35.3 36.0 23.0 49 8.6 NNW 24 37 13 20 1004.1 1003.5 0.0
31/03:30pm 36.4 37.1 22.9 45 9.4 N 24 41 13 22 1003.8 1003.2 0.0
31/03:00pm 37.7 38.0 22.2 40 10.8 NW 24 32 13 17 1004.0 1003.4 0.0
31/02:30pm 39.3 38.3 20.5 33 12.8 NW 26 33 14 18 1003.9 1003.3 0.0
31/02:00pm 39.7 39.7 18.9 30 13.9 NNW 17 28 9 15 1004.1 1003.5 0.0
31/01:30pm 38.9 37.7 17.6 28 13.9 NW 20 32 11 17 1004.6 1004.0 0.0
31/01:00pm 38.8 38.3 18.6 30 13.4 NW 19 26 10 14 1004.9 1004.3 0.0
31/12:30pm 38.2 38.3 19.1 32 12.7 N 17 24 9 13 1005.3 1004.7 0.0
31/12:00pm 37.6 37.9 19.5 34 12.1 NNW 17 24 9 13 1005.7 1005.1 0.0
31/11:30am 37.9 38.5 20.2 35 12.0 NNW 17 26 9 14 1006.2 1005.6 0.0
31/11:00am 36.8 37.7 20.1 37 11.3 WNW 15 26 8 14 1006.6 1006.0 0.0
31/10:30am 35.8 36.1 18.8 36 11.2 W 15 26 8 14 1007.1 1006.5 0.0
31/10:00am 36.4 37.4 21.0 40 10.5 NW 17 24 9 13 1007.3 1006.7 0.0
31/09:30am 34.9 36.2 20.8 43 9.5 WNW 15 24 8 13 1007.5 1006.9 0.0
31/09:00am 33.5 34.3 19.9 44 9.1 NW 15 22 8 12 1007.8 1007.2 0.0
31/08:30am 32.0 33.5 21.2 52 7.3 NW 15 24 8 13 1008.2 1007.6 0.0
31/08:00am 30.5 32.8 22.7 63 5.3 NNW 15 20 8 11 1008.4 1007.8 0.0
31/07:30am 28.6 31.5 23.9 75 3.3 NNW 15 20 8 11 1008.4 1007.8 0.0
31/07:00am 27.4 31.8 25.0 87 1.7 N 11 17 6 9 1008.3 1007.7 0.0
31/06:30am 26.5 31.2 24.9 91 1.1 N 9 15 5 8 1008.2 1007.6 0.0
31/06:00am 25.5 30.2 24.3 93 0.8 NNE 7 11 4 6 1007.9 1007.3 0.0
31/05:30am 25.2 29.3 24.0 93 0.8 N 9 13 5 7 1007.4 1006.8 0.0
31/05:00am 25.3 29.4 23.9 92 1.0 N 9 13 5 7 1007.3 1006.7 0.0
31/04:30am 25.5 29.8 23.7 90 1.2 N 7 11 4 6 1007.0 1006.4 0.0
31/04:00am 25.7 29.7 23.7 89 1.4 N 9 15 5 8 1006.8 1006.2 0.0
31/03:30am 25.8 29.3 23.5 87 1.6 N 11 15 6 8 1006.6 1006.0 0.0
31/03:00am 25.7 29.2 23.6 88 1.4 N 11 13 6 7 1006.2 1005.6 0.0
31/02:30am 25.8 29.6 23.5 87 1.6 N 9 11 5 6 1005.9 1005.3 0.0
31/02:00am 25.7 29.5 23.4 87 1.6 N 9 13 5 7 1006.1 1005.5 0.0
31/01:30am 25.7 29.4 22.6 83 2.1 N 7 9 4 5 1006.2 1005.6 0.0
31/01:00am 26.3 30.0 23.2 83 2.1 NNW 9 13 5 7 1006.2 1005.6 0.0
31/12:30am 26.8 30.8 23.1 80 2.5 NNW 7 9 4 5 1006.2 1005.6 0.0
31/12:00am 27.0 30.3 22.6 77 3.0 N 9 11 5 6 1006.3 1005.7 0.0
 
Date/Time
WST
Temp
°C
App
Temp
°C
Dew
Point
Rel
Hum
%
Delta-T
°C
Wind Press
QNH
hPa
Press
MSL
hPa
Rain
since 9 am
mm
Dir
 
Spd
km/h
Gust
km/h
Spd
kts
Gust
kts
30/11:30pm 26.8 29.8 21.3 72 3.7 NNW 7 9 4 5 1006.3 1005.7 0.0
30/11:00pm 28.8 32.1 21.8 66 4.7 WNW 7 11 4 6 1006.6 1006.0 0.0
30/10:30pm 29.6 32.7 22.8 67 4.7 W 11 13 6 7 1006.7 1006.1 0.0
30/10:00pm 29.6 33.1 22.8 67 4.7 NW 9 11 5 6 1006.8 1006.2 0.0
30/09:30pm 30.0 32.9 22.4 63 5.2 NNW 11 13 6 7 1006.8 1006.2 0.0
30/09:00pm 29.9 32.6 21.3 60 5.8 NNW 9 11 5 6 1006.6 1006.0 0.0
30/08:30pm 30.7 33.5 21.5 58 6.2 NNW 9 11 5 6 1006.4 1005.8 0.0
30/08:00pm 31.2 33.9 21.4 56 6.6 NNW 9 13 5 7 1006.3 1005.7 0.0
30/07:30pm 31.6 34.2 21.2 54 7.0 NNW 9 11 5 6 1005.9 1005.3 0.0
30/07:00pm 32.2 34.3 20.1 48 8.1 N 9 11 5 6 1005.5 1004.9 0.0
30/06:30pm 33.1 35.1 19.9 45 8.8 NNW 9 13 5 7 1005.2 1004.6 0.0
30/06:00pm 34.0 34.9 19.3 42 9.7 NNW 13 17 7 9 1004.9 1004.3 0.0
30/05:30pm 35.2 36.0 19.9 40 10.2 NW 15 20 8 11 1004.6 1004.0 0.0
30/05:00pm 36.4 36.6 18.5 35 11.8 NW 15 24 8 13 1004.4 1003.8 0.0
30/04:30pm 37.2 36.7 17.7 31 12.7 NNW 17 24 9 13 1004.2 1003.6 0.0
30/04:00pm 38.4 37.1 16.7 28 14.1 NW 19 24 10 13 1004.0 1003.4 0.0
30/03:30pm 40.1 39.5 13.6 21 16.5 WNW 9 13 5 7 1004.0 1003.4 0.0
30/03:00pm 41.6 40.1 10.7 16 18.6 SSW 9 19 5 10 1004.0 1003.4 0.0
30/02:30pm 41.7 39.5 10.8 16 18.6 SSW 13 20 7 11 1004.4 1003.8 0.0
30/02:00pm 41.5 38.9 10.6 16 18.6 S 15 20 8 11 1004.6 1004.0 0.0
30/01:30pm 43.1 41.6 11.9 16 19.2 SE 11 24 6 13 1005.0 1004.4 0.0
30/01:00pm 41.6 38.8 12.5 18 18.0 SSW 19 24 10 13 1005.5 1004.9 0.0
30/12:30pm 40.7 37.6 11.7 18 17.6 SSE 19 22 10 12 1006.1 1005.5 0.0
30/12:00pm 39.6 38.9 13.2 21 16.4 SW 9 15 5 8 1006.7 1006.1 0.0
30/11:30am 39.8 39.3 14.8 23 15.8 SW 11 19 6 10 1007.3 1006.7 0.0
30/11:00am 38.7 38.1 14.5 24 15.2 SSW 11 22 6 12 1007.9 1007.3 0.0
30/10:30am 37.8 37.4 16.1 27 13.9 SW 13 20 7 11 1008.4 1007.8 0.0
30/10:00am 36.6 36.0 16.7 30 12.8 WSW 15 22 8 12 1008.9 1008.4 0.0
30/09:30am 35.6 35.9 17.8 35 11.6 WSW 13 20 7 11 1009.3 1008.8 0.0
30/09:00am 33.9 34.6 18.8 41 9.9 W 13 19 7 10 1009.5 1009.0 0.0
30/08:30am 32.9 33.7 19.0 43 9.1 WSW 13 20 7 11 1009.9 1009.4 0.0
30/08:00am 31.2 31.8 20.2 52 7.3 SW 17 20 9 11 1009.9 1009.4 0.0
30/07:30am 30.1 32.0 22.0 62 5.5 WSW 15 20 8 11 1009.8 1009.3 0.0
30/07:00am 28.7 31.1 22.9 71 4.0 WSW 15 20 8 11 1009.7 1009.2 0.0
30/06:30am 27.2 31.0 24.1 83 2.1 W 11 15 6 8 1009.7 1009.2 0.0
30/06:00am 25.4 28.9 19.5 70 3.8 CALM 0 0 0 0 1009.7 1009.2 0.0
30/05:30am 23.8 27.4 19.7 78 2.6 CALM 0 0 0 0 1009.4 1008.9 0.0
30/05:00am 22.9 24.8 18.9 78 2.5 N 7 9 4 5 1009.3 1008.8 0.0
30/04:30am 23.5 26.3 18.8 75 3.0 S 2 7 1 4 1008.9 1008.4 0.0
30/04:00am 23.7 26.8 18.6 73 3.2 CALM 0 0 0 0 1008.8 1008.3 0.0
30/03:30am 24.5 27.5 18.4 69 3.9 CALM 0 0 0 0 1008.5 1007.9 0.0
30/03:00am 26.1 28.1 19.2 65 4.5 W 7 9 4 5 1008.2 1007.6 0.0
30/02:30am 26.4 28.1 18.0 60 5.3 WNW 6 9 3 5 1008.0 1007.4 0.0
30/02:00am 27.6 27.8 17.7 54 6.3 SW 13 17 7 9 1008.1 1007.5 0.0
30/01:30am 28.0 28.6 19.5 60 5.5 SW 15 20 8 11 1007.9 1007.3 0.0
30/01:00am 28.0 31.0 22.7 73 3.6 WSW 11 13 6 7 1007.8 1007.2 0.0
30/12:30am 27.9 31.0 22.8 74 3.5 SW 11 13 6 7 1008.0 1007.4 0.0
30/12:00am 28.9 31.4 22.4 68 4.4 W 13 15 7 8 1008.3 1007.7 0.0
 
Date/Time
WST
Temp
°C
App
Temp
°C
Dew
Point
Rel
Hum
%
Delta-T
°C
Wind Press
QNH
hPa
Press
MSL
hPa
Rain
since 9 am
mm
Dir
 
Spd
km/h
Gust
km/h
Spd
kts
Gust
kts
29/11:30pm 29.2 32.1 22.4 66 4.6 W 11 15 6 8 1008.5 1007.9 0.0
29/11:00pm 29.8 32.9 22.8 66 4.8 W 11 15 6 8 1008.9 1008.4 0.0
29/10:30pm 29.8 31.7 23.5 69 4.4 W 19 24 10 13 1008.8 1008.3 0.0
29/10:00pm 29.8 33.4 23.7 70 4.2 NNW 11 13 6 7 1010.3 1009.8 0.0
29/09:30pm 29.9 33.3 24.1 71 4.0 N 13 20 7 11 1010.9 1010.4 0.0
29/09:00pm 30.0 32.9 24.4 72 3.9 NE 17 22 9 12 1011.0 1010.5 0.0
29/08:30pm 29.7 33.6 24.8 75 3.4 N 13 20 7 11 1010.1 1009.6 0.0
29/08:00pm 30.5 33.3 23.7 67 4.7 N 15 22 8 12 1009.8 1009.3 0.0
29/07:30pm 31.3 34.0 22.9 61 5.8 N 13 24 7 13 1009.4 1008.9 0.0
29/07:00pm 32.1 35.2 23.6 60 5.9 NNW 13 20 7 11 1008.9 1008.4 0.0
29/06:30pm 32.6 36.2 23.8 59 6.1 NNW 11 19 6 10 1008.3 1007.7 0.0
29/06:00pm 33.0 36.0 23.3 56 6.7 NNW 13 19 7 10 1007.8 1007.2 0.0
29/05:30pm 33.5 35.3 22.6 53 7.5 NNW 17 28 9 15 1007.7 1007.1 0.0
29/05:00pm 33.8 34.1 22.2 50 8.0 NNW 24 37 13 20 1007.4 1006.8 0.0
29/04:30pm 36.1 36.0 20.8 41 10.4 NW 22 32 12 17 1007.0 1006.4 0.0
29/04:00pm 38.3 36.9 18.7 31 13.0 NW 24 32 13 17 1006.6 1006.0 0.0
29/03:30pm 41.0 39.4 12.8 19 17.4 W 13 24 7 13 1006.5 1005.9 0.0
29/03:00pm 40.6 38.5 12.5 19 17.3 NW 15 28 8 15 1006.6 1006.0 0.0
29/02:30pm 41.1 38.9 12.1 18 17.8 W 15 20 8 11 1006.9 1006.3 0.0
29/02:00pm 39.9 38.0 11.9 19 17.1 NW 13 20 7 11 1007.3 1006.7 0.0
29/01:30pm 38.9 37.0 11.9 20 16.4 WNW 13 20 7 11 1007.7 1007.1 0.0
29/01:00pm 39.4 38.3 13.0 21 16.3 SSW 11 17 6 9 1008.1 1007.5 0.0
29/12:30pm 39.8 37.0 12.6 20 16.7 SSW 19 24 10 13 1008.6 1008.0 0.0
29/12:00pm 40.0 39.0 13.5 21 16.5 WSW 11 22 6 12 1009.2 1008.7 0.0
29/11:30am 39.0 36.8 13.4 22 15.8 SW 17 26 9 14 1009.9 1009.4 0.0
29/11:00am 37.9 37.3 14.5 25 14.7 SSW 11 19 6 10 1010.4 1009.9 0.0
29/10:30am 37.4 37.2 15.8 27 13.7 SW 11 17 6 9 1010.9 1010.4 0.0
29/10:00am 36.6 36.6 16.2 29 13.0 S 11 17 6 9 1011.3 1010.8 0.0
29/09:30am 34.8 34.9 17.5 35 11.2 S 13 20 7 11 1011.7 1011.2 0.0
29/09:00am 33.2 34.3 18.9 42 9.4 SSW 11 17 6 9 1011.9 1011.4 0.0
29/08:30am 31.0 33.1 20.9 55 6.8 WSW 11 15 6 8 1012.1 1011.6 0.0
29/08:00am 30.2 31.5 21.6 60 5.8 SW 17 20 9 11 1012.1 1011.6 0.0
29/07:30am 28.7 30.6 22.7 70 4.1 SW 17 20 9 11 1011.8 1011.3 0.0
29/07:00am 28.8 31.4 23.9 75 3.4 WSW 17 22 9 12 1011.8 1011.3 0.0
29/06:30am 26.8 31.0 23.5 82 2.3 NW 7 9 4 5 1011.8 1011.3 0.0
29/06:00am 25.6 29.5 22.9 85 1.8 N 7 9 4 5 1011.7 1011.2 0.0
29/05:30am 24.1 27.4 21.4 85 1.8 NW 6 6 3 3 1011.1 1010.6 0.0
29/05:00am 24.3 27.8 21.8 86 1.7 N 6 7 3 4 1010.8 1010.3 0.0
29/04:30am 25.4 28.0 22.7 85 1.8 SW 13 15 7 8 1010.3 1009.8 0.0
29/04:00am 25.0 28.2 21.7 82 2.2 SW 7 9 4 5 1010.0 1009.5 0.0
29/03:30am 24.8 28.4 20.5 77 2.8 SW 2 7 1 4 1009.9 1009.4 0.0
29/03:00am 26.0 28.0 20.8 73 3.4 WSW 11 15 6 8 1009.6 1009.1 0.0
29/02:30am 25.9 27.9 20.0 70 3.8 NW 9 9 5 5 1009.6 1009.1 0.0
29/02:00am 26.7 28.6 19.8 66 4.5 W 9 13 5 7 1009.4 1008.9 0.0
29/01:30am 27.3 29.0 20.1 64 4.7 WSW 11 15 6 8 1009.4 1008.9 0.0
29/01:00am 26.4 29.7 21.8 76 3.1 W 7 9 4 5 1009.7 1009.2 0.0
29/12:30am 26.1 29.0 21.1 74 3.3 N 7 7 4 4 1009.5 1009.0 0.0
29/12:00am 27.8 31.1 21.8 70 4.0 SW 7 11 4 6 1009.5 1009.0 0.0
 
Date/Time
WST
Temp
°C
App
Temp
°C
Dew
Point
Rel
Hum
%
Delta-T
°C
Wind Press
QNH
hPa
Press
MSL
hPa
Rain
since 9 am
mm
Dir
 
Spd
km/h
Gust
km/h
Spd
kts
Gust
kts
28/11:30pm 28.2 30.8 22.0 69 4.2 SW 11 15 6 8 1009.6 1009.1 0.0
28/11:00pm 28.4 31.3 21.7 67 4.5 WSW 9 13 5 7 1009.7 1009.2 0.0
28/10:30pm 28.5 30.5 20.8 63 5.1 WSW 11 13 6 7 1009.7 1009.2 0.0
28/10:00pm 28.9 30.8 19.8 58 6.0 W 9 11 5 6 1009.7 1009.2 0.0
28/09:30pm 29.7 31.0 19.4 54 6.7 W 11 15 6 8 1009.8 1009.3 0.0
28/09:00pm 29.7 28.8 18.2 50 7.4 WNW 20 26 11 14 1009.4 1008.9 0.0
28/08:30pm 30.2 30.7 16.6 44 8.5 NE 9 17 5 9 1010.7 1010.2 0.0
28/08:00pm 30.3 30.1 16.7 44 8.6 WNW 13 19 7 10 1009.6 1009.1 0.0
28/07:30pm 30.4 29.6 17.1 44 8.4 N 17 26 9 14 1010.0 1009.5 0.0
28/07:00pm 31.5 32.2 20.4 51 7.4 N 17 30 9 16 1009.8 1009.3 0.0
28/06:30pm 31.2 32.8 22.8 61 5.8 N 19 24 10 13 1009.7 1009.2 0.0
28/06:00pm 31.4 33.4 24.0 65 5.2 NNW 20 30 11 16 1008.1 1007.5 0.0
28/05:30pm 32.5 33.4 22.6 56 6.8 NNW 22 35 12 19 1007.3 1006.7 0.0
28/05:00pm 34.5 34.7 20.5 44 9.4 NNW 20 32 11 17 1006.7 1006.1 0.0

Other Formats:

Comma delimited format used in spreadsheet applications
http://www.bom.gov.au/fwo/IDW60801/IDW60801.94204.axf

JavaScript Object Notation format (JSON) in row-major order
http://www.bom.gov.au/fwo/IDW60801/IDW60801.94204.json